< < Back
Terminal Aerodrome Forecast


Current Version              Previous Versions:   1  2  3  4  5  6  7  8  9  

Terminal Aerodrome Forecast

530
FTUS42 KTAE 301720
TAFABY
TAF
KABY 301720Z 3018/0118 19008KT P6SM VCTS SCT040CB
     FM010200 17004KT P6SM SCT200
     FM011000 16003KT 5SM BR SCT200
     FM011300 19006KT P6SM SCT040=



Latest METAR

212
SAUS70 KWBC 011100 RRV
MTRABY
METAR KABY 011053Z AUTO 00000KT 8SM CLR 21/19 A3001 RMK AO2 SLP160
T02110194


USA.gov is the U.S. government's official web portal to all federal, state and local government web resources and services.